HRE weather

Robert Gabriel Mugabe International Airport
Harare, Harare Metropolitan Province, Zimbabwe

Public forecast

Using degrees Celsius for public forecast. Weather courtesy of forecast.io.

METAR (pilot weather report)

Report is more than 6 hours old.

Retrieved 2019/04/25 19:00 UTC (6 hours ago):

FVRG 251900Z 14006KT 110V170 CAVOK 18/14 Q1023 NOSIG

TAF (pilot weather forecast)

Forecast is more than 6 hours old.

Retrieved 2019/04/25 18:00 UTC (7 hours ago):

TAF FVRG 251600Z 2518/2624 12008KT CAVOK